sensor_id;sensor_type;location;lat;lon;timestamp;pressure;altitude;pressure_sealevel;temperature;humidity
52591;BME280;38483;42.620;25.394;2023-03-14T00:01:45;97379.03;;;2.96;61.86
52591;BME280;38483;42.620;25.394;2023-03-14T00:04:12;97374.00;;;2.88;62.61
52591;BME280;38483;42.620;25.394;2023-03-14T00:06:39;97378.22;;;2.91;62.92
52591;BME280;38483;42.620;25.394;2023-03-14T00:09:06;97370.50;;;2.98;62.10
52591;BME280;38483;42.620;25.394;2023-03-14T00:11:34;97368.78;;;2.97;62.91
52591;BME280;38483;42.620;25.394;2023-03-14T00:14:00;97368.09;;;2.83;63.46
52591;BME280;38483;42.620;25.394;2023-03-14T00:16:29;97365.56;;;2.80;63.42
52591;BME280;38483;42.620;25.394;2023-03-14T00:18:58;97362.34;;;2.63;63.64
52591;BME280;38483;42.620;25.394;2023-03-14T00:21:25;97361.44;;;2.64;64.59
52591;BME280;38483;42.620;25.394;2023-03-14T00:23:52;97357.81;;;2.88;64.01
52591;BME280;38483;42.620;25.394;2023-03-14T00:26:20;97348.38;;;2.94;62.67
52591;BME280;38483;42.620;25.394;2023-03-14T00:28:51;97347.41;;;3.04;62.55
52591;BME280;38483;42.620;25.394;2023-03-14T00:31:19;97348.28;;;3.02;62.54
52591;BME280;38483;42.620;25.394;2023-03-14T00:33:46;97341.72;;;2.80;63.32
52591;BME280;38483;42.620;25.394;2023-03-14T00:36:17;97347.03;;;2.59;62.72
52591;BME280;38483;42.620;25.394;2023-03-14T00:38:46;97332.47;;;2.65;63.04
52591;BME280;38483;42.620;25.394;2023-03-14T00:41:18;97335.06;;;2.62;63.51
52591;BME280;38483;42.620;25.394;2023-03-14T00:43:46;97329.50;;;2.19;64.46
52591;BME280;38483;42.620;25.394;2023-03-14T00:46:13;97340.63;;;2.14;64.64
52591;BME280;38483;42.620;25.394;2023-03-14T00:48:44;97315.03;;;2.17;64.31
52591;BME280;38483;42.620;25.394;2023-03-14T00:51:12;97309.06;;;2.22;65.30
52591;BME280;38483;42.620;25.394;2023-03-14T00:53:43;97301.28;;;2.34;65.05
52591;BME280;38483;42.620;25.394;2023-03-14T00:56:12;97248.63;;;2.18;64.14
52591;BME280;38483;42.620;25.394;2023-03-14T00:58:39;97292.50;;;2.60;63.63
52591;BME280;38483;42.620;25.394;2023-03-14T01:01:14;97293.25;;;2.68;64.23
52591;BME280;38483;42.620;25.394;2023-03-14T01:03:42;97295.06;;;2.58;64.64
52591;BME280;38483;42.620;25.394;2023-03-14T01:06:13;97299.63;;;2.30;64.61
52591;BME280;38483;42.620;25.394;2023-03-14T01:08:43;97288.59;;;2.21;65.14
52591;BME280;38483;42.620;25.394;2023-03-14T01:11:13;97293.81;;;2.12;65.81
52591;BME280;38483;42.620;25.394;2023-03-14T01:13:40;97277.78;;;1.98;66.59
52591;BME280;38483;42.620;25.394;2023-03-14T01:16:09;97284.59;;;1.94;67.12
52591;BME280;38483;42.620;25.394;2023-03-14T01:18:37;97278.88;;;1.63;67.39
52591;BME280;38483;42.620;25.394;2023-03-14T01:21:11;97276.31;;;1.63;68.63
52591;BME280;38483;42.620;25.394;2023-03-14T01:23:39;97288.19;;;1.69;68.13
52591;BME280;38483;42.620;25.394;2023-03-14T01:26:09;97283.13;;;1.66;68.50
52591;BME280;38483;42.620;25.394;2023-03-14T01:28:38;97278.81;;;1.73;67.38
52591;BME280;38483;42.620;25.394;2023-03-14T01:31:06;97255.13;;;1.55;68.39
52591;BME280;38483;42.620;25.394;2023-03-14T01:33:34;97265.25;;;1.63;68.32
52591;BME280;38483;42.620;25.394;2023-03-14T01:36:02;97260.31;;;1.43;67.61
52591;BME280;38483;42.620;25.394;2023-03-14T01:38:30;97264.56;;;1.46;68.82
52591;BME280;38483;42.620;25.394;2023-03-14T01:40:58;97271.41;;;1.39;68.83
52591;BME280;38483;42.620;25.394;2023-03-14T01:43:26;97260.31;;;1.43;68.44
52591;BME280;38483;42.620;25.394;2023-03-14T01:48:42;97264.50;;;1.56;66.79
52591;BME280;38483;42.620;25.394;2023-03-14T01:51:18;97266.13;;;1.63;66.91
52591;BME280;38483;42.620;25.394;2023-03-14T01:53:49;97244.16;;;1.41;67.92
52591;BME280;38483;42.620;25.394;2023-03-14T01:56:18;97251.78;;;1.44;68.14
52591;BME280;38483;42.620;25.394;2023-03-14T01:58:48;97233.19;;;1.32;68.42
52591;BME280;38483;42.620;25.394;2023-03-14T02:01:19;97254.28;;;1.55;67.40
52591;BME280;38483;42.620;25.394;2023-03-14T02:03:55;97248.25;;;1.67;66.74
52591;BME280;38483;42.620;25.394;2023-03-14T02:06:29;97245.63;;;1.74;66.94
52591;BME280;38483;42.620;25.394;2023-03-14T02:09:00;97237.13;;;1.69;67.31
52591;BME280;38483;42.620;25.394;2023-03-14T02:11:30;97237.06;;;1.80;66.62
52591;BME280;38483;42.620;25.394;2023-03-14T02:14:03;97236.09;;;1.93;66.01
52591;BME280;38483;42.620;25.394;2023-03-14T02:17:04;97237.81;;;1.91;65.63
52591;BME280;38483;42.620;25.394;2023-03-14T02:22:42;97241.34;;;1.78;67.29
52591;BME280;38483;42.620;25.394;2023-03-14T02:27:49;97236.03;;;2.00;66.32
52591;BME280;38483;42.620;25.394;2023-03-14T02:30:22;97233.59;;;1.87;66.10
52591;BME280;38483;42.620;25.394;2023-03-14T02:32:54;97215.72;;;1.87;65.42
52591;BME280;38483;42.620;25.394;2023-03-14T02:35:26;97234.44;;;1.89;66.53
52591;BME280;38483;42.620;25.394;2023-03-14T02:38:02;97225.06;;;1.88;65.84
52591;BME280;38483;42.620;25.394;2023-03-14T02:40:35;97216.78;;;1.63;66.78
52591;BME280;38483;42.620;25.394;2023-03-14T02:43:02;97169.38;;;1.38;66.63
52591;BME280;38483;42.620;25.394;2023-03-14T02:45:39;97206.63;;;1.57;67.06
52591;BME280;38483;42.620;25.394;2023-03-14T02:48:25;97217.56;;;1.71;65.89
52591;BME280;38483;42.620;25.394;2023-03-14T02:50:55;97224.66;;;1.37;67.53
52591;BME280;38483;42.620;25.394;2023-03-14T02:53:34;97221.34;;;1.23;67.83
52591;BME280;38483;42.620;25.394;2023-03-14T02:56:07;97221.41;;;1.14;67.58
52591;BME280;38483;42.620;25.394;2023-03-14T02:58:35;97229.91;;;1.13;68.50
52591;BME280;38483;42.620;25.394;2023-03-14T03:01:11;97231.69;;;1.01;68.97
52591;BME280;38483;42.620;25.394;2023-03-14T03:03:38;97233.41;;;0.99;68.14
52591;BME280;38483;42.620;25.394;2023-03-14T03:06:06;97230.84;;;0.99;68.56
52591;BME280;38483;42.620;25.394;2023-03-14T03:08:33;97198.66;;;0.76;69.20
52591;BME280;38483;42.620;25.394;2023-03-14T03:11:00;97241.03;;;0.96;67.95
52591;BME280;38483;42.620;25.394;2023-03-14T03:13:29;97237.75;;;0.77;68.83
52591;BME280;38483;42.620;25.394;2023-03-14T03:15:57;97205.53;;;0.58;68.70
52591;BME280;38483;42.620;25.394;2023-03-14T03:18:24;97240.25;;;0.86;69.16
52591;BME280;38483;42.620;25.394;2023-03-14T03:20:51;97250.31;;;1.07;68.60
52591;BME280;38483;42.620;25.394;2023-03-14T03:23:18;97242.69;;;1.09;67.96
52591;BME280;38483;42.620;25.394;2023-03-14T03:25:51;97246.19;;;0.93;68.11
52591;BME280;38483;42.620;25.394;2023-03-14T03:28:19;97240.31;;;0.74;67.97
52591;BME280;38483;42.620;25.394;2023-03-14T03:30:46;97245.41;;;0.74;68.23
52591;BME280;38483;42.620;25.394;2023-03-14T03:33:14;97247.94;;;0.80;68.85
52591;BME280;38483;42.620;25.394;2023-03-14T03:35:48;97241.97;;;0.81;68.77
52591;BME280;38483;42.620;25.394;2023-03-14T03:38:25;97231.78;;;0.81;69.00
52591;BME280;38483;42.620;25.394;2023-03-14T03:40:53;97240.31;;;0.71;69.73
52591;BME280;38483;42.620;25.394;2023-03-14T03:43:24;97232.75;;;0.57;69.51
52591;BME280;38483;42.620;25.394;2023-03-14T03:45:51;97228.50;;;0.52;69.22
52591;BME280;38483;42.620;25.394;2023-03-14T03:48:19;97234.44;;;0.55;69.25
52591;BME280;38483;42.620;25.394;2023-03-14T03:50:47;97236.13;;;0.55;69.74
52591;BME280;38483;42.620;25.394;2023-03-14T03:53:17;97237.81;;;0.56;69.30
52591;BME280;38483;42.620;25.394;2023-03-14T03:55:59;97239.56;;;0.48;70.31
52591;BME280;38483;42.620;25.394;2023-03-14T03:58:26;97238.75;;;0.43;70.47
52591;BME280;38483;42.620;25.394;2023-03-14T04:00:54;97238.72;;;0.41;70.22
52591;BME280;38483;42.620;25.394;2023-03-14T04:03:21;97241.25;;;0.41;69.48
52591;BME280;38483;42.620;25.394;2023-03-14T04:05:58;97234.44;;;0.57;68.78
52591;BME280;38483;42.620;25.394;2023-03-14T04:08:25;97233.53;;;0.68;68.89
52591;BME280;38483;42.620;25.394;2023-03-14T04:10:57;97216.47;;;0.82;68.42
52591;BME280;38483;42.620;25.394;2023-03-14T04:13:38;97234.97;;;1.16;66.85
52591;BME280;38483;42.620;25.394;2023-03-14T04:16:14;97233.19;;;1.30;66.09
52591;BME280;38483;42.620;25.394;2023-03-14T04:18:43;97227.19;;;1.37;65.53
52591;BME280;38483;42.620;25.394;2023-03-14T04:21:10;97217.81;;;1.39;65.71
52591;BME280;38483;42.620;25.394;2023-03-14T04:23:45;97222.81;;;1.56;65.62
52591;BME280;38483;42.620;25.394;2023-03-14T04:26:13;97212.56;;;1.60;66.16
52591;BME280;38483;42.620;25.394;2023-03-14T04:28:40;97209.25;;;1.46;66.51
52591;BME280;38483;42.620;25.394;2023-03-14T04:33:36;97198.97;;;1.58;67.00
52591;BME280;38483;42.620;25.394;2023-03-14T04:36:05;97214.34;;;1.49;68.02
52591;BME280;38483;42.620;25.394;2023-03-14T04:38:32;97218.47;;;1.64;67.26
52591;BME280;38483;42.620;25.394;2023-03-14T04:41:00;97226.06;;;1.72;66.58
52591;BME280;38483;42.620;25.394;2023-03-14T04:43:31;97216.72;;;1.71;65.79
52591;BME280;38483;42.620;25.394;2023-03-14T04:46:07;97219.28;;;1.71;66.55
52591;BME280;38483;42.620;25.394;2023-03-14T04:48:34;97195.56;;;1.55;65.31
52591;BME280;38483;42.620;25.394;2023-03-14T04:51:02;97222.66;;;1.73;65.51
52591;BME280;38483;42.620;25.394;2023-03-14T04:53:31;97221.84;;;1.67;66.65
52591;BME280;38483;42.620;25.394;2023-03-14T04:56:01;97194.03;;;1.37;65.78
52591;BME280;38483;42.620;25.394;2023-03-14T04:58:35;97219.34;;;1.61;67.02
52591;BME280;38483;42.620;25.394;2023-03-14T05:01:04;97229.66;;;1.52;67.37
52591;BME280;38483;42.620;25.394;2023-03-14T05:03:46;97215.47;;;1.11;67.43
52591;BME280;38483;42.620;25.394;2023-03-14T05:06:20;97219.63;;;1.25;67.80
52591;BME280;38483;42.620;25.394;2023-03-14T05:09:04;97219.66;;;1.18;66.91
52591;BME280;38483;42.620;25.394;2023-03-14T05:11:50;97223.72;;;1.50;67.40
52591;BME280;38483;42.620;25.394;2023-03-14T05:14:23;97190.69;;;1.31;67.12
52591;BME280;38483;42.620;25.394;2023-03-14T05:17:09;97224.28;;;1.80;66.67
52591;BME280;38483;42.620;25.394;2023-03-14T05:19:55;97222.19;;;2.21;65.23
52591;BME280;38483;42.620;25.394;2023-03-14T05:22:45;97205.25;;;2.14;65.34
52591;BME280;38483;42.620;25.394;2023-03-14T05:25:44;97224.81;;;2.16;64.69
52591;BME280;38483;42.620;25.394;2023-03-14T05:28:31;97226.06;;;2.57;63.35
52591;BME280;38483;42.620;25.394;2023-03-14T05:31:16;97206.31;;;2.69;63.15
52591;BME280;38483;42.620;25.394;2023-03-14T05:33:46;97221.59;;;2.75;62.28
52591;BME280;38483;42.620;25.394;2023-03-14T05:36:32;97232.16;;;2.46;62.58
52591;BME280;38483;42.620;25.394;2023-03-14T05:38:59;97232.34;;;2.28;63.29
52591;BME280;38483;42.620;25.394;2023-03-14T05:41:37;97226.53;;;2.13;64.09
52591;BME280;38483;42.620;25.394;2023-03-14T05:44:26;97229.06;;;2.16;63.67
52591;BME280;38483;42.620;25.394;2023-03-14T05:46:53;97229.94;;;2.13;64.40
52591;BME280;38483;42.620;25.394;2023-03-14T05:49:20;97226.41;;;2.25;64.19
52591;BME280;38483;42.620;25.394;2023-03-14T05:52:05;97198.38;;;2.19;62.87
52591;BME280;38483;42.620;25.394;2023-03-14T05:54:45;97223.69;;;2.40;63.54
52591;BME280;38483;42.620;25.394;2023-03-14T05:57:12;97236.59;;;2.99;62.88
52591;BME280;38483;42.620;25.394;2023-03-14T05:59:51;97235.47;;;3.20;62.07
52591;BME280;38483;42.620;25.394;2023-03-14T06:02:47;97219.94;;;3.32;61.33
52591;BME280;38483;42.620;25.394;2023-03-14T06:05:21;97222.25;;;3.49;60.94
52591;BME280;38483;42.620;25.394;2023-03-14T06:07:54;97236.22;;;3.81;60.20
52591;BME280;38483;42.620;25.394;2023-03-14T06:10:21;97228.38;;;3.92;59.81
52591;BME280;38483;42.620;25.394;2023-03-14T06:12:48;97235.00;;;4.05;58.87
52591;BME280;38483;42.620;25.394;2023-03-14T06:15:15;97234.50;;;3.85;60.03
52591;BME280;38483;42.620;25.394;2023-03-14T06:17:46;97226.97;;;3.74;60.21
52591;BME280;38483;42.620;25.394;2023-03-14T06:20:13;97220.13;;;3.76;60.01
52591;BME280;38483;42.620;25.394;2023-03-14T06:22:40;97238.34;;;4.10;59.27
52591;BME280;38483;42.620;25.394;2023-03-14T06:25:10;97244.69;;;4.35;58.18
52591;BME280;38483;42.620;25.394;2023-03-14T06:27:38;97236.41;;;4.21;57.31
52591;BME280;38483;42.620;25.394;2023-03-14T06:30:06;97235.75;;;4.11;58.72
52591;BME280;38483;42.620;25.394;2023-03-14T06:32:33;97228.97;;;4.07;59.06
52591;BME280;38483;42.620;25.394;2023-03-14T06:35:05;97229.53;;;4.23;57.76
52591;BME280;38483;42.620;25.394;2023-03-14T06:37:36;97219.47;;;4.12;58.39
52591;BME280;38483;42.620;25.394;2023-03-14T06:40:04;97231.09;;;4.32;58.73
52591;BME280;38483;42.620;25.394;2023-03-14T06:42:48;97230.03;;;4.42;59.31
52591;BME280;38483;42.620;25.394;2023-03-14T06:45:16;97223.75;;;4.58;59.01
52591;BME280;38483;42.620;25.394;2023-03-14T06:47:44;97221.50;;;4.85;58.36
52591;BME280;38483;42.620;25.394;2023-03-14T06:50:11;97208.69;;;5.24;57.65
52591;BME280;38483;42.620;25.394;2023-03-14T06:52:39;97217.84;;;5.72;56.11
52591;BME280;38483;42.620;25.394;2023-03-14T06:55:18;97204.25;;;5.67;55.96
52591;BME280;38483;42.620;25.394;2023-03-14T06:57:48;97214.78;;;5.93;55.54
52591;BME280;38483;42.620;25.394;2023-03-14T07:00:15;97221.44;;;6.00;55.48
52591;BME280;38483;42.620;25.394;2023-03-14T07:02:42;97218.16;;;5.94;55.75
52591;BME280;38483;42.620;25.394;2023-03-14T07:05:27;97223.09;;;6.03;55.95
52591;BME280;38483;42.620;25.394;2023-03-14T07:07:54;97215.13;;;6.13;55.04
52591;BME280;38483;42.620;25.394;2023-03-14T07:10:21;97206.66;;;6.08;55.54
52591;BME280;38483;42.620;25.394;2023-03-14T07:12:49;97206.13;;;6.29;54.16
52591;BME280;38483;42.620;25.394;2023-03-14T07:15:16;97210.41;;;6.29;54.61
52591;BME280;38483;42.620;25.394;2023-03-14T07:17:49;97204.19;;;6.37;53.63
52591;BME280;38483;42.620;25.394;2023-03-14T07:20:19;97199.50;;;6.51;52.79
52591;BME280;38483;42.620;25.394;2023-03-14T07:22:50;97189.31;;;6.48;53.47
52591;BME280;38483;42.620;25.394;2023-03-14T07:25:23;97193.53;;;6.80;52.23
52591;BME280;38483;42.620;25.394;2023-03-14T07:27:50;97192.38;;;6.92;51.15
52591;BME280;38483;42.620;25.394;2023-03-14T07:30:17;97189.84;;;6.90;50.89
52591;BME280;38483;42.620;25.394;2023-03-14T07:32:45;97185.00;;;7.09;51.17
52591;BME280;38483;42.620;25.394;2023-03-14T07:35:13;97176.06;;;6.91;51.04
52591;BME280;38483;42.620;25.394;2023-03-14T07:37:41;97194.56;;;7.33;51.17
52591;BME280;38483;42.620;25.394;2023-03-14T07:40:09;97181.97;;;7.50;50.59
52591;BME280;38483;42.620;25.394;2023-03-14T07:42:39;97174.69;;;7.63;50.12
52591;BME280;38483;42.620;25.394;2023-03-14T07:45:23;97172.09;;;7.90;48.00
52591;BME280;38483;42.620;25.394;2023-03-14T07:47:50;97173.34;;;7.79;49.00
52591;BME280;38483;42.620;25.394;2023-03-14T07:50:17;97172.22;;;7.86;48.33
52591;BME280;38483;42.620;25.394;2023-03-14T07:52:45;97167.34;;;7.78;47.61
52591;BME280;38483;42.620;25.394;2023-03-14T07:55:12;97163.22;;;7.99;47.16
52591;BME280;38483;42.620;25.394;2023-03-14T07:57:40;97153.91;;;8.19;45.66
52591;BME280;38483;42.620;25.394;2023-03-14T08:00:08;97148.72;;;8.19;46.92
52591;BME280;38483;42.620;25.394;2023-03-14T08:02:39;97137.56;;;8.44;46.75
52591;BME280;38483;42.620;25.394;2023-03-14T08:05:07;97135.56;;;8.52;45.16
52591;BME280;38483;42.620;25.394;2023-03-14T08:07:34;97138.94;;;8.54;43.60
52591;BME280;38483;42.620;25.394;2023-03-14T08:10:01;97141.84;;;8.68;43.49
52591;BME280;38483;42.620;25.394;2023-03-14T08:12:29;97143.19;;;8.78;43.58
52591;BME280;38483;42.620;25.394;2023-03-14T08:14:56;97124.94;;;8.82;42.61
52591;BME280;38483;42.620;25.394;2023-03-14T08:17:23;97132.19;;;8.96;43.18
52591;BME280;38483;42.620;25.394;2023-03-14T08:19:50;97131.03;;;9.03;42.71
52591;BME280;38483;42.620;25.394;2023-03-14T08:22:16;97126.56;;;9.08;41.81
52591;BME280;38483;42.620;25.394;2023-03-14T08:24:45;97133.28;;;9.12;40.91
52591;BME280;38483;42.620;25.394;2023-03-14T08:27:12;97113.16;;;9.20;41.03
52591;BME280;38483;42.620;25.394;2023-03-14T08:29:41;97124.50;;;9.38;39.05
52591;BME280;38483;42.620;25.394;2023-03-14T08:32:08;97107.69;;;9.28;38.63
52591;BME280;38483;42.620;25.394;2023-03-14T08:34:36;97121.44;;;9.07;40.05
52591;BME280;38483;42.620;25.394;2023-03-14T08:37:05;97108.28;;;9.34;38.58
52591;BME280;38483;42.620;25.394;2023-03-14T08:39:49;97110.47;;;9.65;37.72
52591;BME280;38483;42.620;25.394;2023-03-14T08:42:17;97099.81;;;9.72;37.21
52591;BME280;38483;42.620;25.394;2023-03-14T08:44:45;97112.25;;;10.05;37.24
52591;BME280;38483;42.620;25.394;2023-03-14T08:47:12;97103.03;;;9.77;36.98
52591;BME280;38483;42.620;25.394;2023-03-14T08:49:40;97110.47;;;9.85;37.49
52591;BME280;38483;42.620;25.394;2023-03-14T08:52:07;97086.06;;;9.72;37.71
52591;BME280;38483;42.620;25.394;2023-03-14T08:54:34;97093.81;;;9.92;36.83
52591;BME280;38483;42.620;25.394;2023-03-14T08:57:01;97086.06;;;9.72;36.52
52591;BME280;38483;42.620;25.394;2023-03-14T08:59:28;97074.22;;;9.87;36.30
52591;BME280;38483;42.620;25.394;2023-03-14T09:01:55;97069.69;;;9.71;36.00
52591;BME280;38483;42.620;25.394;2023-03-14T09:04:22;97066.31;;;9.49;36.16
52591;BME280;38483;42.620;25.394;2023-03-14T09:06:50;97081.06;;;9.67;36.57
52591;BME280;38483;42.620;25.394;2023-03-14T09:09:16;97078.81;;;9.80;36.46
52591;BME280;38483;42.620;25.394;2023-03-14T09:11:43;97074.47;;;10.01;36.05
52591;BME280;38483;42.620;25.394;2023-03-14T09:14:10;97064.59;;;10.10;35.89
52591;BME280;38483;42.620;25.394;2023-03-14T09:16:37;97053.50;;;10.07;35.99
52591;BME280;38483;42.620;25.394;2023-03-14T09:19:04;97054.97;;;10.14;36.10
52591;BME280;38483;42.620;25.394;2023-03-14T09:21:32;97051.47;;;10.15;35.45
52591;BME280;38483;42.620;25.394;2023-03-14T09:23:59;97055.97;;;10.30;36.02
52591;BME280;38483;42.620;25.394;2023-03-14T09:26:26;97049.66;;;10.35;35.82
52591;BME280;38483;42.620;25.394;2023-03-14T09:28:53;97031.25;;;10.03;36.26
52591;BME280;38483;42.620;25.394;2023-03-14T09:31:22;97041.88;;;10.17;36.29
52591;BME280;38483;42.620;25.394;2023-03-14T09:33:49;97018.44;;;10.00;36.30
52591;BME280;38483;42.620;25.394;2023-03-14T09:36:16;97037.19;;;10.25;35.88
52591;BME280;38483;42.620;25.394;2023-03-14T09:38:43;97002.38;;;10.32;35.36
52591;BME280;38483;42.620;25.394;2023-03-14T09:44:08;97021.47;;;10.48;35.63
52591;BME280;38483;42.620;25.394;2023-03-14T09:46:38;97017.16;;;10.67;35.83
52591;BME280;38483;42.620;25.394;2023-03-14T09:49:19;97006.44;;;10.56;35.38
52591;BME280;38483;42.620;25.394;2023-03-14T09:51:50;97002.69;;;10.80;35.33
52591;BME280;38483;42.620;25.394;2023-03-14T09:56:54;96983.91;;;10.58;35.32
52591;BME280;38483;42.620;25.394;2023-03-14T09:59:21;96972.38;;;10.82;35.33
52591;BME280;38483;42.620;25.394;2023-03-14T10:01:48;96954.53;;;10.76;35.39
52591;BME280;38483;42.620;25.394;2023-03-14T10:04:21;96982.59;;;11.21;35.33
52591;BME280;38483;42.620;25.394;2023-03-14T10:06:50;96970.09;;;11.29;34.43
52591;BME280;38483;42.620;25.394;2023-03-14T10:09:21;96974.44;;;11.45;34.77
52591;BME280;38483;42.620;25.394;2023-03-14T10:11:56;96966.31;;;11.69;34.14
52591;BME280;38483;42.620;25.394;2023-03-14T10:14:35;96966.84;;;12.08;34.24
52591;BME280;38483;42.620;25.394;2023-03-14T10:17:08;96962.16;;;11.66;33.67
52591;BME280;38483;42.620;25.394;2023-03-14T10:19:37;96959.31;;;11.71;33.98
52591;BME280;38483;42.620;25.394;2023-03-14T10:22:04;96948.22;;;11.84;33.51
52591;BME280;38483;42.620;25.394;2023-03-14T10:24:34;96932.34;;;12.06;32.66
52591;BME280;38483;42.620;25.394;2023-03-14T10:27:08;96930.53;;;11.75;34.13
52591;BME280;38483;42.620;25.394;2023-03-14T10:33:32;96928.53;;;11.63;35.12
52591;BME280;38483;42.620;25.394;2023-03-14T10:36:00;96886.75;;;11.02;35.22
52591;BME280;38483;42.620;25.394;2023-03-14T10:38:32;96918.63;;;11.71;35.11
52591;BME280;38483;42.620;25.394;2023-03-14T10:41:01;96912.00;;;11.66;34.67
52591;BME280;38483;42.620;25.394;2023-03-14T10:43:34;96892.69;;;11.71;34.70
52591;BME280;38483;42.620;25.394;2023-03-14T10:46:19;96896.13;;;11.72;34.58
52591;BME280;38483;42.620;25.394;2023-03-14T10:49:25;96894.50;;;11.86;34.23
52591;BME280;38483;42.620;25.394;2023-03-14T10:51:52;96883.56;;;11.97;34.24
52591;BME280;38483;42.620;25.394;2023-03-14T10:54:22;96881.38;;;12.05;34.40
52591;BME280;38483;42.620;25.394;2023-03-14T10:56:57;96876.94;;;12.38;34.48
52591;BME280;38483;42.620;25.394;2023-03-14T10:59:36;96867.31;;;12.70;33.71
52591;BME280;38483;42.620;25.394;2023-03-14T11:05:40;96856.09;;;12.99;33.32
52591;BME280;38483;42.620;25.394;2023-03-14T11:08:34;96855.25;;;13.28;32.88
52591;BME280;38483;42.620;25.394;2023-03-14T11:11:14;96804.94;;;12.99;32.85
52591;BME280;38483;42.620;25.394;2023-03-14T11:13:54;96837.06;;;13.42;32.63
52591;BME280;38483;42.620;25.394;2023-03-14T11:16:56;96823.41;;;13.25;32.58
52591;BME280;38483;42.620;25.394;2023-03-14T11:19:41;96814.47;;;13.15;33.32
52591;BME280;38483;42.620;25.394;2023-03-14T11:22:59;96805.00;;;13.14;32.99
52591;BME280;38483;42.620;25.394;2023-03-14T11:25:42;96800.38;;;13.33;33.61
52591;BME280;38483;42.620;25.394;2023-03-14T11:28:21;96780.31;;;13.35;33.25
52591;BME280;38483;42.620;25.394;2023-03-14T11:30:59;96778.56;;;13.35;32.77
52591;BME280;38483;42.620;25.394;2023-03-14T11:36:07;96750.78;;;13.07;33.77
52591;BME280;38483;42.620;25.394;2023-03-14T11:38:57;96756.88;;;13.49;33.68
52591;BME280;38483;42.620;25.394;2023-03-14T11:43:57;96756.19;;;13.73;33.75
52591;BME280;38483;42.620;25.394;2023-03-14T11:46:32;96748.66;;;13.69;33.25
52591;BME280;38483;42.620;25.394;2023-03-14T11:49:08;96747.91;;;13.81;32.87
52591;BME280;38483;42.620;25.394;2023-03-14T11:51:40;96747.56;;;14.00;33.01
52591;BME280;38483;42.620;25.394;2023-03-14T11:54:42;96732.38;;;14.06;32.87
52591;BME280;38483;42.620;25.394;2023-03-14T11:57:19;96719.59;;;14.03;33.38
52591;BME280;38483;42.620;25.394;2023-03-14T12:10:24;96702.22;;;13.63;35.21
52591;BME280;38483;42.620;25.394;2023-03-14T12:12:51;96699.13;;;13.70;35.14
52591;BME280;38483;42.620;25.394;2023-03-14T12:15:20;96707.13;;;13.27;35.78
52591;BME280;38483;42.620;25.394;2023-03-14T12:17:54;96695.47;;;13.46;35.97
52591;BME280;38483;42.620;25.394;2023-03-14T12:20:23;96688.16;;;13.39;36.25
52591;BME280;38483;42.620;25.394;2023-03-14T12:23:01;96669.22;;;13.37;37.23
52591;BME280;38483;42.620;25.394;2023-03-14T12:25:33;96668.56;;;13.74;36.36
52591;BME280;38483;42.620;25.394;2023-03-14T12:28:21;96669.75;;;13.42;36.67
52591;BME280;38483;42.620;25.394;2023-03-14T12:30:56;96670.41;;;13.45;37.24
52591;BME280;38483;42.620;25.394;2023-03-14T12:33:43;96646.94;;;13.33;37.00
52591;BME280;38483;42.620;25.394;2023-03-14T12:36:19;96633.53;;;13.39;36.82
52591;BME280;38483;42.620;25.394;2023-03-14T12:39:08;96648.47;;;13.76;36.13
52591;BME280;38483;42.620;25.394;2023-03-14T12:41:47;96632.75;;;13.77;35.72
52591;BME280;38483;42.620;25.394;2023-03-14T12:44:39;96625.50;;;13.82;36.36
52591;BME280;38483;42.620;25.394;2023-03-14T12:58:39;96620.63;;;13.64;36.50
52591;BME280;38483;42.620;25.394;2023-03-14T13:01:19;96591.97;;;13.25;36.48
52591;BME280;38483;42.620;25.394;2023-03-14T13:06:47;96605.81;;;13.91;36.05
52591;BME280;38483;42.620;25.394;2023-03-14T13:12:00;96593.47;;;14.20;35.45
52591;BME280;38483;42.620;25.394;2023-03-14T13:14:30;96590.19;;;13.91;35.29
52591;BME280;38483;42.620;25.394;2023-03-14T13:17:01;96556.22;;;13.67;35.22
52591;BME280;38483;42.620;25.394;2023-03-14T13:19:50;96558.63;;;13.83;35.43
52591;BME280;38483;42.620;25.394;2023-03-14T13:22:27;96569.66;;;13.74;35.86
52591;BME280;38483;42.620;25.394;2023-03-14T13:25:10;96551.16;;;13.78;35.37
52591;BME280;38483;42.620;25.394;2023-03-14T13:27:38;96573.78;;;14.03;35.27
52591;BME280;38483;42.620;25.394;2023-03-14T13:32:45;96562.50;;;13.90;35.06
52591;BME280;38483;42.620;25.394;2023-03-14T13:35:26;96546.97;;;13.76;35.37
52591;BME280;38483;42.620;25.394;2023-03-14T13:38:01;96553.91;;;13.63;36.17
52591;BME280;38483;42.620;25.394;2023-03-14T13:40:38;96541.84;;;13.62;35.49
52591;BME280;38483;42.620;25.394;2023-03-14T13:45:55;96539.47;;;13.84;35.22
52591;BME280;38483;42.620;25.394;2023-03-14T13:48:26;96521.28;;;13.45;35.70
52591;BME280;38483;42.620;25.394;2023-03-14T13:50:59;96540.63;;;13.80;35.47
52591;BME280;38483;42.620;25.394;2023-03-14T13:53:27;96533.13;;;13.88;35.43
52591;BME280;38483;42.620;25.394;2023-03-14T13:55:54;96534.56;;;13.67;35.00
52591;BME280;38483;42.620;25.394;2023-03-14T13:58:28;96537.56;;;13.61;35.76
52591;BME280;38483;42.620;25.394;2023-03-14T14:00:59;96519.56;;;13.70;35.07
52591;BME280;38483;42.620;25.394;2023-03-14T14:03:31;96510.56;;;13.88;34.67
52591;BME280;38483;42.620;25.394;2023-03-14T14:05:58;96483.75;;;13.61;34.71
52591;BME280;38483;42.620;25.394;2023-03-14T14:08:26;96515.53;;;13.92;34.87
52591;BME280;38483;42.620;25.394;2023-03-14T14:10:58;96517.66;;;13.99;34.52
52591;BME280;38483;42.620;25.394;2023-03-14T14:13:29;96490.31;;;13.67;35.03
52591;BME280;38483;42.620;25.394;2023-03-14T14:15:59;96493.94;;;13.52;35.09
52591;BME280;38483;42.620;25.394;2023-03-14T14:18:28;96497.28;;;13.66;35.70
52591;BME280;38483;42.620;25.394;2023-03-14T14:20:57;96478.88;;;13.69;35.69
52591;BME280;38483;42.620;25.394;2023-03-14T14:23:26;96498.16;;;13.92;34.86
52591;BME280;38483;42.620;25.394;2023-03-14T14:25:56;96477.13;;;13.70;34.90